Time;durP1;ratioP1;P1;durP2;ratioP2;P2;SDS_P1;SDS_P2;PMS_P1;PMS_P2;Temp;Humidity;BMP_temperature;BMP_pressure;BME280_temperature;BME280_humidity;BME280_pressure;Samples;Min_cycle;Max_cycle;Signal;HPM_P1;HPM_P2
2024/01/01 00:00:16;;;;;;;30.95;21.52;;;6.70;99.90;;;;;;6255112;22;20015;-87
2024/01/01 00:03:05;;;;;;;41.92;22.10;;;6.70;99.90;;;;;;6278553;22;20015;-88
2024/01/01 00:05:36;;;;;;;33.20;19.75;;;7.40;99.90;;;;;;6283378;22;20019;-88
2024/01/01 00:08:05;;;;;;;29.75;18.80;;;6.70;99.90;;;;;;6278557;22;20061;-88
2024/01/01 00:10:31;;;;;;;32.65;19.48;;;6.70;99.90;;;;;;6304783;22;20030;-88
2024/01/01 00:13:00;;;;;;;31.70;20.17;;;6.80;99.90;;;;;;6278512;22;20019;-88
2024/01/01 00:15:28;;;;;;;30.70;20.60;;;6.90;99.90;;;;;;6278606;22;20108;-88
2024/01/01 00:17:54;;;;;;;36.63;22.83;;;6.90;99.90;;;;;;6278964;22;20023;-88
2024/01/01 00:20:24;;;;;;;36.03;21.90;;;7.00;99.90;;;;;;6304522;22;20011;-88
2024/01/01 00:22:50;;;;;;;39.22;24.20;;;6.90;99.90;;;;;;6253770;22;20015;-88
2024/01/01 00:25:23;;;;;;;38.53;23.97;;;6.90;99.90;;;;;;6278619;22;20312;-88
2024/01/01 00:27:49;;;;;;;43.10;25.73;;;5.90;99.90;;;;;;6304566;22;20101;-88
2024/01/01 00:30:15;;;;;;;38.00;25.33;;;6.90;99.90;;;;;;6253184;22;20051;-88
2024/01/01 00:32:41;;;;;;;40.73;26.83;;;6.90;99.90;;;;;;6278541;22;20020;-88
2024/01/01 00:35:12;;;;;;;41.90;26.80;;;7.00;99.90;;;;;;6278827;22;20016;-91
2024/01/01 00:37:40;;;;;;;42.90;27.15;;;6.90;99.90;;;;;;6280251;22;20011;-88
2024/01/01 00:40:10;;;;;;;42.20;25.40;;;7.10;99.90;;;;;;6253657;22;20012;-88
2024/01/01 00:42:38;;;;;;;41.78;27.46;;;7.00;99.90;;;;;;6228824;22;1162921;-89
2024/01/01 00:45:07;;;;;;;48.05;28.42;;;7.00;99.90;;;;;;6258517;22;20029;-88
2024/01/01 00:47:33;;;;;;;43.53;29.08;;;7.00;99.90;;;;;;6281903;22;20029;-88
2024/01/01 00:50:00;;;;;;;39.97;26.73;;;7.00;99.90;;;;;;6282333;22;20042;-88
2024/01/01 00:52:26;;;;;;;44.35;26.85;;;7.10;99.90;;;;;;6256099;22;20011;-88
2024/01/01 00:54:52;;;;;;;39.97;25.05;;;7.10;99.90;;;;;;6307824;22;20011;-88
2024/01/01 00:57:23;;;;;;;49.88;26.75;;;7.10;99.90;;;;;;6282215;22;20088;-88
2024/01/01 00:59:54;;;;;;;39.90;26.48;;;7.70;99.90;;;;;;6256987;22;20094;-88
2024/01/01 01:02:24;;;;;;;44.83;25.70;;;7.10;99.90;;;;;;6256853;22;20156;-88
2024/01/01 01:04:52;;;;;;;33.40;23.63;;;7.10;99.90;;;;;;6256404;22;20316;-88
2024/01/01 01:07:24;;;;;;;40.58;24.55;;;7.10;99.90;;;;;;6281424;22;20320;-88
2024/01/01 01:09:52;;;;;;;41.90;27.88;;;7.20;99.90;;;;;;6282912;22;20097;-88
2024/01/01 01:12:31;;;;;;;;;;;;;;;;;;;;;
2024/01/01 01:15:02;;;;;;;37.65;23.55;;;7.30;99.90;;;;;;6261470;22;20018;-88
2024/01/01 01:17:30;;;;;;;33.97;22.85;;;6.40;99.90;;;;;;6256739;22;20047;-88
2024/01/01 01:19:59;;;;;;;38.67;24.25;;;7.20;99.90;;;;;;6258401;22;20351;-88
2024/01/01 01:22:31;;;;;;;39.47;22.77;;;7.20;99.90;;;;;;6255865;22;20019;-88
2024/01/01 01:25:08;;;;;;;36.13;24.65;;;7.20;99.90;;;;;;6281562;22;20015;-88
2024/01/01 01:27:36;;;;;;;30.52;21.02;;;7.30;99.90;;;;;;6257918;22;20016;-88
2024/01/01 01:30:05;;;;;;;32.08;22.00;;;7.30;99.90;;;;;;6258067;22;20030;-88
2024/01/01 01:32:34;;;;;;;33.42;21.08;;;7.30;99.90;;;;;;6255603;22;20393;-88
2024/01/01 01:35:06;;;;;;;35.70;21.33;;;7.40;99.90;;;;;;6307439;22;20015;-88
2024/01/01 01:37:34;;;;;;;30.42;21.10;;;7.40;99.90;;;;;;6281477;22;20068;-88
2024/01/01 01:40:11;;;;;;;31.50;19.35;;;7.30;99.90;;;;;;6281284;22;20019;-88
2024/01/01 01:42:36;;;;;;;32.17;20.38;;;6.60;99.90;;;;;;6257306;22;20026;-88
2024/01/01 01:45:05;;;;;;;34.37;18.90;;;7.30;99.90;;;;;;6280895;22;20023;-89
2024/01/01 01:47:34;;;;;;;29.85;20.60;;;7.30;99.90;;;;;;6254892;22;20023;-88
2024/01/01 01:50:05;;;;;;;33.22;20.33;;;7.30;99.90;;;;;;6281610;22;20100;-88
2024/01/01 01:52:42;;;;;;;37.75;21.33;;;7.30;99.90;;;;;;6280989;22;20022;-88
2024/01/01 01:55:09;;;;;;;37.50;23.33;;;7.30;99.90;;;;;;6258149;22;20450;-88
2024/01/01 01:57:43;;;;;;;29.77;19.60;;;7.30;99.90;;;;;;6281009;22;20092;-88
2024/01/01 02:00:10;;;;;;;28.98;21.40;;;7.20;99.90;;;;;;6281254;22;20051;-88
2024/01/01 02:02:40;;;;;;;34.80;22.85;;;7.20;99.90;;;;;;6255677;22;20342;-88
2024/01/01 02:05:06;;;;;;;35.72;22.50;;;7.00;99.90;;;;;;6280896;22;20019;-88
2024/01/01 02:07:46;;;;;;;;;;;;;;;;;;;;;
2024/01/01 02:10:12;;;;;;;33.50;20.45;;;7.20;99.90;;;;;;6306992;22;20335;-90
2024/01/01 02:12:44;;;;;;;31.70;20.48;;;7.30;99.90;;;;;;6306677;22;20015;-88
2024/01/01 02:15:13;;;;;;;35.22;24.95;;;7.30;99.90;;;;;;6281889;22;20455;-88
2024/01/01 02:17:41;;;;;;;33.27;24.47;;;7.30;99.90;;;;;;6255498;22;20026;-88
2024/01/01 02:20:10;;;;;;;40.47;25.05;;;7.20;99.90;;;;;;6280890;22;20022;-88
2024/01/01 02:22:39;;;;;;;32.00;22.80;;;7.10;99.90;;;;;;6255253;22;20023;-88
2024/01/01 02:25:15;;;;;;;33.50;20.85;;;7.20;99.90;;;;;;6281133;22;20019;-88
2024/01/01 02:27:46;;;;;;;34.80;22.27;;;7.30;99.90;;;;;;6256052;22;20015;-88
2024/01/01 02:30:22;;;;;;;41.08;21.75;;;7.20;99.90;;;;;;6255920;22;20252;-88
2024/01/01 02:32:53;;;;;;;31.35;21.83;;;7.20;99.90;;;;;;6281770;22;20439;-88
2024/01/01 02:35:28;;;;;;;31.15;21.70;;;7.10;99.90;;;;;;6280815;22;20339;-88
2024/01/01 02:38:07;;;;;;;26.05;18.58;;;7.20;99.90;;;;;;6257197;22;20149;-88
2024/01/01 02:40:38;;;;;;;23.75;18.50;;;7.50;99.90;;;;;;6280122;22;20339;-88
2024/01/01 02:43:12;;;;;;;30.48;18.95;;;7.20;99.90;;;;;;6280803;22;20462;-88
2024/01/01 02:45:40;;;;;;;27.20;19.15;;;6.80;99.90;;;;;;6280712;22;20024;-88
2024/01/01 02:48:11;;;;;;;25.17;16.70;;;6.90;99.90;;;;;;6280464;22;20026;-88
2024/01/01 02:50:44;;;;;;;27.77;16.83;;;7.10;99.90;;;;;;6255095;22;20343;-88
2024/01/01 02:53:13;;;;;;;33.25;18.58;;;7.10;99.90;;;;;;6306933;22;20094;-88
2024/01/01 02:55:44;;;;;;;27.13;17.33;;;6.00;99.90;;;;;;6232413;22;20077;-88
2024/01/01 02:58:10;;;;;;;32.63;16.20;;;6.90;99.90;;;;;;6280722;22;20019;-90
2024/01/01 03:00:39;;;;;;;25.65;16.63;;;6.80;99.90;;;;;;6279684;22;20102;-88
2024/01/01 03:03:10;;;;;;;24.55;16.70;;;6.70;99.90;;;;;;6254307;22;20050;-87
2024/01/01 03:05:36;;;;;;;22.70;14.65;;;6.60;99.90;;;;;;6280475;22;20025;-88
2024/01/01 03:08:04;;;;;;;19.77;13.07;;;6.60;99.90;;;;;;6305346;22;20011;-88
2024/01/01 03:10:41;;;;;;;24.63;14.50;;;6.50;99.90;;;;;;6280465;22;20501;-87
2024/01/01 03:13:07;;;;;;;;;;;6.40;99.90;;;;;;6257771;22;20011;-88
2024/01/01 03:15:40;;;;;;;22.63;13.15;;;6.40;99.90;;;;;;6279835;22;19983;-89
2024/01/01 03:18:11;;;;;;;20.85;13.77;;;6.50;99.90;;;;;;6280342;22;20347;-88
2024/01/01 03:20:41;;;;;;;19.55;11.68;;;6.40;99.90;;;;;;6280416;22;20019;-88
2024/01/01 03:23:07;;;;;;;18.25;11.43;;;6.40;99.90;;;;;;6281478;22;20023;-88
2024/01/01 03:25:38;;;;;;;19.30;10.83;;;6.50;99.90;;;;;;6280187;22;20015;-88
2024/01/01 03:28:09;;;;;;;16.40;10.57;;;6.40;99.90;;;;;;6255157;22;20447;-88
2024/01/01 03:30:38;;;;;;;19.25;8.60;;;6.40;99.90;;;;;;6255323;22;20019;-88
2024/01/01 03:33:09;;;;;;;17.80;9.23;;;6.40;99.90;;;;;;6280056;22;20072;-88
2024/01/01 03:35:37;;;;;;;10.93;7.45;;;6.40;99.90;;;;;;6231181;22;20065;-88
2024/01/01 03:38:03;;;;;;;14.68;6.78;;;6.40;99.90;;;;;;6255021;22;20021;-88
2024/01/01 03:40:30;;;;;;;14.60;6.80;;;6.30;99.90;;;;;;6305893;22;20450;-88
2024/01/01 03:42:56;;;;;;;9.27;6.13;;;7.10;99.90;;;;;;6253788;22;20023;-88
2024/01/01 03:45:24;;;;;;;11.43;5.72;;;6.30;99.90;;;;;;6279994;22;20145;-88
2024/01/01 03:47:51;;;;;;;16.80;6.68;;;6.10;99.90;;;;;;6279442;22;20050;-88
2024/01/01 03:50:19;;;;;;;;;;;6.10;99.90;;;;;;6255132;22;20094;-89
2024/01/01 03:52:54;;;;;;;8.90;5.93;;;6.20;99.90;;;;;;6305859;22;19919;-88
2024/01/01 03:55:22;;;;;;;9.93;5.68;;;5.70;99.90;;;;;;6255019;22;20046;-88
2024/01/01 03:57:54;;;;;;;16.83;6.28;;;6.20;99.90;;;;;;6231127;22;20166;-88
2024/01/01 04:00:22;;;;;;;15.18;6.78;;;6.10;99.90;;;;;;6279282;22;20025;-88
2024/01/01 04:02:49;;;;;;;11.93;5.22;;;6.20;99.90;;;;;;6279832;22;20025;-88
2024/01/01 04:05:15;;;;;;;12.40;5.00;;;6.30;99.90;;;;;;6280175;22;20019;-88
2024/01/01 04:07:41;;;;;;;9.63;4.93;;;6.20;99.90;;;;;;6279888;22;20015;-89
2024/01/01 04:10:10;;;;;;;13.30;6.57;;;6.10;99.90;;;;;;6305426;22;20095;-88
2024/01/01 04:12:41;;;;;;;10.45;4.93;;;6.10;99.90;;;;;;6279411;22;20051;-89
2024/01/01 04:15:09;;;;;;;10.25;3.72;;;6.10;99.90;;;;;;6254833;22;20016;-89
2024/01/01 04:17:41;;;;;;;11.40;4.88;;;6.10;99.90;;;;;;6280077;22;20030;-88
2024/01/01 04:20:12;;;;;;;7.25;3.95;;;6.90;99.90;;;;;;6254391;22;20080;-88
2024/01/01 04:22:42;;;;;;;9.32;4.07;;;6.10;99.90;;;;;;6279971;22;20026;-96
2024/01/01 04:25:08;;;;;;;7.93;3.72;;;6.00;99.90;;;;;;6305770;22;20090;-88
2024/01/01 04:27:47;;;;;;;7.90;3.58;;;6.20;99.90;;;;;;6279930;22;20019;-89
2024/01/01 04:30:23;;;;;;;8.48;4.03;;;6.20;99.90;;;;;;6232369;22;20058;-89
2024/01/01 04:32:53;;;;;;;10.13;3.78;;;6.00;99.90;;;;;;6254346;22;20015;-89
2024/01/01 04:35:24;;;;;;;5.93;3.53;;;6.10;99.90;;;;;;6280101;22;20015;-89
2024/01/01 04:37:53;;;;;;;7.32;4.30;;;6.10;99.90;;;;;;6280202;22;20022;-89
2024/01/01 04:40:20;;;;;;;9.90;3.10;;;6.90;99.90;;;;;;6280109;22;20023;-89
2024/01/01 04:42:48;;;;;;;12.30;3.60;;;6.10;99.90;;;;;;6279386;22;20020;-89
2024/01/01 04:45:19;;;;;;;6.07;3.75;;;6.10;99.90;;;;;;6280355;22;20019;-89
2024/01/01 04:47:45;;;;;;;8.07;3.42;;;6.00;99.90;;;;;;6254744;22;20471;-89
2024/01/01 04:50:14;;;;;;;12.50;6.97;;;6.00;99.90;;;;;;6279934;22;20015;-89
2024/01/01 04:52:47;;;;;;;9.80;4.13;;;6.10;99.90;;;;;;6279943;22;20045;-89
2024/01/01 04:55:29;;;;;;;8.15;3.97;;;6.10;99.90;;;;;;6254682;22;20012;-89
2024/01/01 04:57:55;;;;;;;9.80;3.85;;;6.00;99.90;;;;;;6282898;22;20015;-89
2024/01/01 05:00:21;;;;;;;16.87;4.83;;;6.00;99.90;;;;;;6279891;22;20124;-89
2024/01/01 05:02:59;;;;;;;;;;;;;;;;;;;;;
2024/01/01 05:05:28;;;;;;;14.07;4.32;;;6.00;99.90;;;;;;6282178;22;20029;-89
2024/01/01 05:07:59;;;;;;;10.55;4.32;;;6.00;99.90;;;;;;6229130;22;20019;-89
2024/01/01 05:10:33;;;;;;;10.57;5.10;;;6.00;99.90;;;;;;6305799;22;20054;-89
2024/01/01 05:12:59;;;;;;;10.23;4.63;;;6.00;99.90;;;;;;6279165;22;20015;-89
2024/01/01 05:15:31;;;;;;;13.20;5.00;;;6.00;99.90;;;;;;6279600;22;20072;-89
2024/01/01 05:18:02;;;;;;;14.23;4.53;;;5.90;99.90;;;;;;6254691;22;20089;-89
2024/01/01 05:20:37;;;;;;;13.73;4.82;;;6.00;99.90;;;;;;6279886;22;20021;-88
2024/01/01 05:23:22;;;;;;;9.23;4.20;;;6.00;99.90;;;;;;6279903;22;20018;-89
2024/01/01 05:25:50;;;;;;;9.23;4.65;;;5.00;99.90;;;;;;6257669;22;20019;-90
2024/01/01 05:28:16;;;;;;;12.55;4.57;;;6.00;99.90;;;;;;6281320;22;20015;-89
2024/01/01 05:30:53;;;;;;;10.67;4.77;;;6.00;99.90;;;;;;6281937;22;20023;-89
2024/01/01 05:33:39;;;;;;;15.82;5.30;;;6.00;99.90;;;;;;6281826;22;20090;-89
2024/01/01 05:36:17;;;;;;;10.65;4.63;;;6.00;99.90;;;;;;6281412;22;20098;-89
2024/01/01 05:38:49;;;;;;;10.93;5.00;;;6.10;99.90;;;;;;6281325;22;20019;-89
2024/01/01 05:41:23;;;;;;;12.43;4.43;;;5.90;99.90;;;;;;6283121;22;20127;-89
2024/01/01 05:43:50;;;;;;;15.73;5.10;;;6.00;99.90;;;;;;6280588;22;20070;-93
2024/01/01 05:46:30;;;;;;;;;;;;;;;;;;;;;
2024/01/01 05:49:04;;;;;;;17.13;4.97;;;6.00;99.90;;;;;;6283678;22;20090;-89
2024/01/01 05:51:33;;;;;;;10.88;4.40;;;5.00;99.90;;;;;;6257096;22;20320;-89
2024/01/01 05:54:01;;;;;;;15.15;4.53;;;6.00;99.90;;;;;;6280859;22;20022;-89
2024/01/01 05:56:56;;;;;;;10.43;4.32;;;6.10;99.90;;;;;;6283573;22;20011;-89
2024/01/01 05:59:35;;;;;;;14.43;4.53;;;6.10;99.90;;;;;;6257830;22;20030;-89
2024/01/01 06:02:03;;;;;;;9.63;5.20;;;6.00;99.90;;;;;;6281672;22;20015;-90
2024/01/01 06:04:36;;;;;;;14.43;4.80;;;6.10;99.90;;;;;;6281355;22;20119;-89
2024/01/01 06:07:22;;;;;;;10.68;4.05;;;6.10;99.90;;;;;;6281656;22;20073;-89
2024/01/01 06:09:57;;;;;;;9.57;4.03;;;6.10;99.90;;;;;;6280622;22;20015;-89
2024/01/01 06:12:26;;;;;;;10.23;4.53;;;6.10;99.90;;;;;;6281565;22;20020;-89
2024/01/01 06:14:57;;;;;;;9.15;5.47;;;6.10;99.90;;;;;;6280838;22;20011;-89
2024/01/01 06:17:23;;;;;;;11.13;4.95;;;6.20;99.90;;;;;;6256563;22;20016;-89
2024/01/01 06:19:56;;;;;;;15.10;5.28;;;6.20;99.90;;;;;;6282080;22;20488;-88
2024/01/01 06:22:23;;;;;;;11.82;4.63;;;5.10;99.90;;;;;;6306477;22;20011;-88
2024/01/01 06:24:51;;;;;;;9.18;4.97;;;6.20;99.90;;;;;;6280610;22;20068;-89
2024/01/01 06:27:22;;;;;;;15.10;4.57;;;6.10;99.90;;;;;;6255380;22;20401;-89
2024/01/01 06:29:48;;;;;;;10.00;4.28;;;6.20;99.90;;;;;;6280342;22;20076;-89
2024/01/01 06:32:21;;;;;;;9.68;4.35;;;6.20;99.90;;;;;;6280593;22;20026;-89
2024/01/01 06:34:49;;;;;;;14.63;6.18;;;5.20;99.90;;;;;;6280540;22;20019;-89
2024/01/01 06:37:20;;;;;;;12.10;5.18;;;6.10;99.90;;;;;;6280782;22;20019;-89
2024/01/01 06:39:45;;;;;;;15.60;5.97;;;6.20;99.90;;;;;;6256194;22;20530;-89
2024/01/01 06:42:16;;;;;;;13.27;4.73;;;6.20;99.90;;;;;;6280565;22;20112;-89
2024/01/01 06:44:53;;;;;;;10.23;5.43;;;6.20;99.90;;;;;;6255873;22;20069;-90
2024/01/01 06:47:21;;;;;;;10.07;4.40;;;6.10;99.90;;;;;;6280498;22;20076;-89
2024/01/01 06:49:50;;;;;;;11.82;4.15;;;6.20;99.90;;;;;;6280781;22;20328;-89
2024/01/01 06:52:21;;;;;;;14.88;6.22;;;6.10;99.90;;;;;;6306150;22;20015;-89
2024/01/01 06:54:51;;;;;;;12.45;5.45;;;6.20;99.90;;;;;;6280746;22;20015;-89
2024/01/01 06:57:26;;;;;;;10.82;4.70;;;6.20;99.90;;;;;;6280600;22;20316;-88
2024/01/01 06:59:52;;;;;;;11.00;4.75;;;6.20;99.90;;;;;;6256541;22;20015;-89
2024/01/01 07:02:18;;;;;;;17.20;5.30;;;6.20;99.90;;;;;;6280120;22;20021;-89
2024/01/01 07:04:44;;;;;;;13.17;5.47;;;6.20;99.90;;;;;;6254351;22;20011;-89
2024/01/01 07:07:10;;;;;;;10.70;5.63;;;6.20;99.90;;;;;;6255053;22;20470;-89
2024/01/01 07:09:39;;;;;;;13.00;5.18;;;6.20;99.90;;;;;;6280050;22;20018;-89
2024/01/01 07:12:23;;;;;;;11.35;6.05;;;6.20;99.90;;;;;;6305783;22;20026;-89
2024/01/01 07:14:52;;;;;;;10.55;5.80;;;6.20;99.90;;;;;;6280466;22;20065;-89
2024/01/01 07:17:26;;;;;;;10.38;5.55;;;6.20;99.90;;;;;;6280495;22;20071;-89
2024/01/01 07:19:59;;;;;;;12.15;5.68;;;6.20;99.90;;;;;;6257201;22;20500;-89
2024/01/01 07:22:43;;;;;;;;;;;;;;;;;;;;;
2024/01/01 07:25:09;;;;;;;10.90;5.93;;;6.20;99.90;;;;;;6306053;22;20019;-89
2024/01/01 07:27:39;;;;;;;10.97;4.90;;;6.20;99.90;;;;;;6280513;22;20026;-89
2024/01/01 07:30:11;;;;;;;9.55;4.93;;;6.20;99.90;;;;;;6255491;22;20393;-90
2024/01/01 07:32:42;;;;;;;11.93;4.82;;;6.20;99.90;;;;;;6255430;22;20015;-89
2024/01/01 07:35:13;;;;;;;14.32;5.28;;;6.10;99.90;;;;;;6255792;22;20524;-90
2024/01/01 07:37:51;;;;;;;15.45;5.65;;;6.30;99.90;;;;;;6255116;22;20019;-89
2024/01/01 07:40:17;;;;;;;11.88;4.95;;;6.30;99.90;;;;;;6231075;22;20015;-89
2024/01/01 07:42:45;;;;;;;8.00;4.07;;;6.20;99.90;;;;;;6279920;22;20438;-89
2024/01/01 07:45:12;;;;;;;14.57;4.95;;;6.20;99.90;;;;;;6279803;22;20287;-89
2024/01/01 07:47:45;;;;;;;14.30;4.63;;;6.20;99.90;;;;;;6280243;22;20101;-89
2024/01/01 07:50:20;;;;;;;10.93;4.22;;;6.20;99.90;;;;;;6231101;22;20019;-89
2024/01/01 07:52:48;;;;;;;11.88;4.20;;;6.20;99.90;;;;;;6281097;22;20049;-89
2024/01/01 07:55:19;;;;;;;10.02;4.60;;;6.20;99.90;;;;;;6254341;22;20019;-89
2024/01/01 07:57:57;;;;;;;8.90;4.00;;;6.10;99.90;;;;;;6255238;22;20532;-89
2024/01/01 08:00:25;;;;;;;9.38;4.80;;;6.20;99.90;;;;;;6279989;22;20015;-89
2024/01/01 08:02:58;;;;;;;13.25;5.25;;;6.20;99.90;;;;;;6305597;22;20090;-89
2024/01/01 08:05:24;;;;;;;9.18;5.00;;;6.20;99.90;;;;;;6279849;22;20530;-89
2024/01/01 08:08:02;;;;;;;;;;;;;;;;;;;;;
2024/01/01 08:10:37;;;;;;;11.60;6.90;;;6.30;99.90;;;;;;6305708;22;20097;-89
2024/01/01 08:13:22;;;;;;;12.40;5.57;;;6.20;99.90;;;;;;6258546;22;20019;-89
2024/01/01 08:15:56;;;;;;;15.85;6.28;;;6.20;99.90;;;;;;6256185;22;20050;-89
2024/01/01 08:18:22;;;;;;;14.15;6.43;;;6.20;99.90;;;;;;6279501;22;20522;-89
2024/01/01 08:20:48;;;;;;;16.90;7.23;;;6.20;99.90;;;;;;6280139;22;20050;-88
2024/01/01 08:23:31;;;;;;;13.07;6.70;;;5.60;99.90;;;;;;6279672;22;20018;-90
2024/01/01 08:26:00;;;;;;;13.32;6.32;;;6.10;99.90;;;;;;6280139;22;20015;-90
2024/01/01 08:28:28;;;;;;;19.90;6.72;;;6.10;99.90;;;;;;6254298;22;20391;-89
2024/01/01 08:30:56;;;;;;;6.50;3.60;;;6.20;99.90;;;;;;6279731;22;20447;-89
2024/01/01 08:33:27;;;;;;;10.82;4.10;;;6.20;99.90;;;;;;6254742;22;20022;-90
2024/01/01 08:36:15;;;;;;;8.80;3.03;;;6.20;99.90;;;;;;6279864;22;20069;-89
2024/01/01 08:38:41;;;;;;;5.22;2.08;;;6.00;99.90;;;;;;6306089;22;20015;-90
2024/01/01 08:41:09;;;;;;;3.27;1.93;;;6.10;99.90;;;;;;6280032;22;20084;-90
2024/01/01 08:43:41;;;;;;;2.95;1.40;;;6.00;99.90;;;;;;6305120;22;20077;-90
2024/01/01 08:46:10;;;;;;;4.03;1.50;;;4.90;99.90;;;;;;6280067;22;20070;-90
2024/01/01 08:48:48;;;;;;;6.53;1.85;;;5.80;99.90;;;;;;6279332;22;20047;-90
2024/01/01 08:51:24;;;;;;;5.28;2.00;;;5.20;99.90;;;;;;6280810;22;20068;-92
2024/01/01 08:53:55;;;;;;;8.68;2.85;;;5.80;99.90;;;;;;6257655;22;20088;-90
2024/01/01 08:56:24;;;;;;;6.38;2.22;;;5.80;99.90;;;;;;6281003;22;20088;-89
2024/01/01 08:58:50;;;;;;;10.55;3.65;;;5.80;99.90;;;;;;6256997;22;20466;-90
2024/01/01 09:01:21;;;;;;;8.70;4.47;;;5.90;99.90;;;;;;6281637;22;20019;-90
2024/01/01 09:03:50;;;;;;;18.67;5.68;;;5.90;99.90;;;;;;6282405;22;20015;-90
2024/01/01 09:06:33;;;;;;;15.32;5.60;;;6.00;99.90;;;;;;6256096;22;20454;-93
2024/01/01 09:09:09;;;;;;;16.45;7.70;;;6.00;99.90;;;;;;6281535;22;20019;-89
2024/01/01 09:11:35;;;;;;;18.30;7.07;;;5.20;99.90;;;;;;6281850;22;20216;-89
2024/01/01 09:14:04;;;;;;;17.80;6.37;;;6.40;99.90;;;;;;6282211;22;20022;-90
2024/01/01 09:16:37;;;;;;;21.35;7.78;;;6.30;99.90;;;;;;6307423;22;20242;-90
2024/01/01 09:19:03;;;;;;;22.10;6.88;;;6.50;99.90;;;;;;6308060;22;20506;-89
2024/01/01 09:21:39;;;;;;;15.57;5.43;;;6.70;99.90;;;;;;6281200;22;20054;-90
2024/01/01 09:24:09;;;;;;;15.55;5.40;;;6.60;99.90;;;;;;6281760;22;20084;-90
2024/01/01 09:26:40;;;;;;;15.52;4.68;;;6.80;99.90;;;;;;6281189;22;20102;-90
2024/01/01 09:29:08;;;;;;;11.63;4.35;;;6.80;99.90;;;;;;6255585;22;20049;-90
2024/01/01 09:31:35;;;;;;;16.05;6.45;;;6.90;99.90;;;;;;6307302;22;20489;-89
2024/01/01 09:34:03;;;;;;;18.08;6.07;;;6.90;99.90;;;;;;6281722;22;20386;-90
2024/01/01 09:36:32;;;;;;;13.82;6.43;;;6.90;99.90;;;;;;6281061;22;20460;-89
2024/01/01 09:39:04;;;;;;;16.30;5.80;;;6.90;99.90;;;;;;6281180;22;20094;-89
2024/01/01 09:41:30;;;;;;;11.27;5.38;;;6.80;99.90;;;;;;6306748;22;20447;-89
2024/01/01 09:43:55;;;;;;;18.40;5.07;;;6.70;99.90;;;;;;6280705;22;20027;-89
2024/01/01 09:46:26;;;;;;;11.20;5.17;;;7.10;99.90;;;;;;6230652;22;20019;-91
2024/01/01 09:48:52;;;;;;;12.68;5.32;;;5.70;99.90;;;;;;6307830;22;20253;-89
2024/01/01 09:51:22;;;;;;;11.50;4.97;;;6.70;99.90;;;;;;6281241;22;20019;-89
2024/01/01 09:53:48;;;;;;;13.77;4.78;;;5.80;99.90;;;;;;6282096;22;20439;-89
2024/01/01 09:56:17;;;;;;;11.00;4.43;;;6.60;99.90;;;;;;6280989;22;20016;-89
2024/01/01 09:58:53;;;;;;;10.35;4.00;;;6.70;99.90;;;;;;6255755;22;20016;-90
2024/01/01 10:01:19;;;;;;;12.07;5.05;;;6.60;99.90;;;;;;6281485;22;20027;-89
2024/01/01 10:04:03;;;;;;;9.73;4.20;;;6.90;99.90;;;;;;6306794;22;20015;-89
2024/01/01 10:06:46;;;;;;;;;;;;;;;;;;;;;
2024/01/01 10:09:18;;;;;;;13.93;4.93;;;6.80;99.90;;;;;;6306820;22;20019;-89
2024/01/01 10:11:46;;;;;;;14.25;5.15;;;6.80;99.90;;;;;;6255987;22;20019;-89
2024/01/01 10:14:12;;;;;;;15.50;5.05;;;6.90;99.90;;;;;;6281248;22;20022;-89
2024/01/01 10:16:39;;;;;;;9.57;4.63;;;6.80;99.90;;;;;;6255096;22;20019;-89
2024/01/01 10:19:26;;;;;;;8.00;3.88;;;6.80;99.90;;;;;;6307040;22;20207;-89
2024/01/01 10:21:54;;;;;;;12.95;4.15;;;6.70;99.90;;;;;;6282354;22;20019;-89
2024/01/01 10:24:25;;;;;;;13.10;4.55;;;6.60;99.90;;;;;;6231041;22;20012;-89
2024/01/01 10:26:56;;;;;;;18.25;4.72;;;6.70;99.90;;;;;;6281426;22;20076;-89
2024/01/01 10:29:33;;;;;;;15.57;3.10;;;6.80;99.90;;;;;;6256370;22;20473;-89
2024/01/01 10:32:04;;;;;;;11.90;3.88;;;6.60;99.90;;;;;;6257676;22;20022;-89
2024/01/01 10:34:37;;;;;;;10.82;3.88;;;6.80;99.90;;;;;;6280761;22;20022;-89
2024/01/01 10:37:08;;;;;;;13.38;3.85;;;6.90;99.90;;;;;;6281026;22;20019;-89
2024/01/01 10:39:38;;;;;;;9.50;3.35;;;7.10;99.90;;;;;;6280458;22;20023;-89
2024/01/01 10:42:05;;;;;;;11.13;4.68;;;7.10;99.90;;;;;;6281279;22;20019;-89
2024/01/01 10:44:33;;;;;;;;;;;6.80;99.90;;;;;;6255001;22;20027;-90
2024/01/01 10:47:05;;;;;;;;;;;6.60;99.90;;;;;;6280845;22;19915;-89
2024/01/01 10:49:32;;;;;;;14.60;3.80;;;7.00;99.90;;;;;;6280849;22;19962;-90
2024/01/01 10:52:09;;;;;;;11.77;3.63;;;7.10;99.90;;;;;;6280911;22;20047;-89
2024/01/01 10:54:40;;;;;;;11.35;4.32;;;7.00;99.90;;;;;;6306533;22;20071;-89
2024/01/01 10:57:29;;;;;;;10.20;3.40;;;7.00;99.90;;;;;;6280935;22;20015;-89
2024/01/01 11:00:03;;;;;;;19.60;4.97;;;7.00;99.90;;;;;;6280649;22;20093;-89
2024/01/01 11:02:32;;;;;;;16.27;4.10;;;7.00;99.90;;;;;;6280967;22;20068;-89
2024/01/01 11:05:07;;;;;;;8.48;3.15;;;6.00;99.90;;;;;;6280507;22;20334;-90
2024/01/01 11:08:09;;;;;;;8.85;3.00;;;5.90;99.90;;;;;;6280549;22;20094;-89
2024/01/01 11:10:52;;;;;;;;;;;;;;;;;;;;;
2024/01/01 11:13:32;;;;;;;11.98;2.85;;;7.00;99.90;;;;;;6306658;22;20015;-89
2024/01/01 11:16:07;;;;;;;11.90;4.07;;;7.10;99.90;;;;;;6280693;22;20055;-89
2024/01/01 11:18:47;;;;;;;8.23;3.20;;;7.20;99.90;;;;;;6280289;22;20022;-91
2024/01/01 11:21:32;;;;;;;16.48;4.97;;;7.50;99.90;;;;;;6279877;22;20019;-89
2024/01/01 11:24:03;;;;;;;10.88;3.20;;;7.20;99.90;;;;;;6280162;22;20053;-89
2024/01/01 11:26:35;;;;;;;10.50;3.30;;;6.20;99.90;;;;;;6280843;22;20015;-89
2024/01/01 11:29:05;;;;;;;9.20;3.00;;;7.20;99.90;;;;;;6280645;22;20019;-89
2024/01/01 11:31:34;;;;;;;9.07;3.10;;;7.20;99.90;;;;;;6281285;22;20137;-89
2024/01/01 11:34:08;;;;;;;8.30;2.92;;;7.20;99.90;;;;;;6280585;22;20054;-89
2024/01/01 11:36:40;;;;;;;9.10;3.28;;;7.30;99.90;;;;;;6306388;22;20012;-89
2024/01/01 11:39:09;;;;;;;10.77;3.70;;;7.30;99.90;;;;;;6280640;22;20047;-89
2024/01/01 11:41:38;;;;;;;12.73;3.63;;;7.40;99.90;;;;;;6280391;22;20442;-89
2024/01/01 11:44:14;;;;;;;13.55;4.13;;;7.50;99.90;;;;;;6279693;22;20026;-90
2024/01/01 11:46:46;;;;;;;13.88;3.20;;;7.40;99.90;;;;;;6281099;22;20023;-89
2024/01/01 11:49:17;;;;;;;21.38;5.00;;;7.50;99.90;;;;;;6280615;22;20061;-89
2024/01/01 11:51:58;;;;;;;16.98;3.95;;;7.50;99.90;;;;;;6280268;22;20026;-89
2024/01/01 11:54:28;;;;;;;11.20;3.38;;;7.50;99.90;;;;;;6306090;22;20051;-89
2024/01/01 11:57:00;;;;;;;9.77;2.40;;;7.40;99.90;;;;;;6254917;22;20022;-89
2024/01/01 11:59:34;;;;;;;5.80;1.80;;;7.20;99.90;;;;;;6279350;22;20026;-89
2024/01/01 12:02:00;;;;;;;5.93;2.78;;;7.00;99.90;;;;;;6279682;22;20011;-89
2024/01/01 12:04:26;;;;;;;10.90;3.45;;;6.90;99.90;;;;;;6279831;22;20095;-89
2024/01/01 12:06:58;;;;;;;11.25;2.90;;;7.10;99.90;;;;;;6305825;22;20069;-89
2024/01/01 12:09:31;;;;;;;11.70;2.85;;;7.10;99.90;;;;;;6230810;22;20019;-89
2024/01/01 12:12:17;;;;;;;;;;;;;;;;;;;;;
2024/01/01 12:14:53;;;;;;;;;;;;;;;;;;;;;
2024/01/01 12:17:21;;;;;;;10.50;3.17;;;7.10;99.90;;;;;;6306152;22;20051;-89
2024/01/01 12:19:50;;;;;;;10.82;3.35;;;6.60;99.90;;;;;;6279708;22;20015;-89
2024/01/01 12:22:24;;;;;;;17.38;4.32;;;7.20;99.90;;;;;;6305706;22;20019;-89
2024/01/01 12:25:01;;;;;;;11.60;3.58;;;7.30;99.90;;;;;;6254700;22;20011;-89
2024/01/01 12:27:29;;;;;;;11.35;4.28;;;7.40;99.90;;;;;;6229586;22;20047;-89
2024/01/01 12:30:05;;;;;;;9.48;3.17;;;6.40;99.90;;;;;;6255180;22;20027;-89
2024/01/01 12:32:43;;;;;;;;;;;;;;;;;;;;;
2024/01/01 12:35:15;;;;;;;9.25;2.47;;;7.20;99.90;;;;;;6281820;22;20015;-90
2024/01/01 12:37:48;;;;;;;9.95;8.45;;;7.10;99.90;;;;;;6305828;22;20019;-89
2024/01/01 12:40:39;;;;;;;11.95;3.42;;;6.50;99.90;;;;;;6305449;22;20090;-91
2024/01/01 12:43:13;;;;;;;12.38;2.47;;;7.00;99.90;;;;;;6254579;22;20022;-89
2024/01/01 12:45:39;;;;;;;11.93;2.60;;;6.30;99.90;;;;;;6253363;22;20029;-89
2024/01/01 12:48:13;;;;;;;10.07;2.88;;;7.00;99.90;;;;;;6282307;22;20019;-89
2024/01/01 12:50:42;;;;;;;8.60;2.50;;;6.40;99.90;;;;;;6279944;22;20339;-89
2024/01/01 12:53:13;;;;;;;11.25;3.20;;;7.10;99.90;;;;;;6279625;22;20015;-89
2024/01/01 12:55:41;;;;;;;8.55;2.10;;;7.10;99.90;;;;;;6280025;22;20320;-89
2024/01/01 12:58:19;;;;;;;;;;;;;;;;;;;;;
2024/01/01 13:00:45;;;;;;;8.13;2.17;;;7.00;99.90;;;;;;6282236;22;20015;-89
2024/01/01 13:03:11;;;;;;;6.95;2.50;;;6.90;99.90;;;;;;6279565;22;20320;-89
2024/01/01 13:05:48;;;;;;;7.67;2.77;;;6.90;99.90;;;;;;6254490;22;20027;-89
2024/01/01 13:08:16;;;;;;;6.63;1.85;;;7.00;99.90;;;;;;6256329;22;20094;-89
2024/01/01 13:10:44;;;;;;;10.73;2.40;;;7.00;99.90;;;;;;6279548;22;20015;-89
2024/01/01 13:13:12;;;;;;;12.32;2.60;;;7.10;99.90;;;;;;6279502;22;20450;-89
2024/01/01 13:15:45;;;;;;;10.80;2.60;;;7.10;99.90;;;;;;6279884;22;20046;-89
2024/01/01 13:18:21;;;;;;;8.35;3.92;;;7.00;99.90;;;;;;6255151;22;20055;-89
2024/01/01 13:20:47;;;;;;;9.30;2.90;;;7.60;99.90;;;;;;6279996;22;20504;-89